sensor_id;sensor_type;location;lat;lon;timestamp;temperature;humidity
4677;DHT22;2352;48.180;11.478;2022-08-07T00:02:05;21.40;92.60
4677;DHT22;2352;48.180;11.478;2022-08-07T00:05:28;21.40;92.50
4677;DHT22;2352;48.180;11.478;2022-08-07T00:08:31;21.30;92.50
4677;DHT22;2352;48.180;11.478;2022-08-07T00:11:36;21.40;92.20
4677;DHT22;2352;48.180;11.478;2022-08-07T00:14:54;21.40;92.30
4677;DHT22;2352;48.180;11.478;2022-08-07T00:17:59;21.40;91.90
4677;DHT22;2352;48.180;11.478;2022-08-07T00:21:06;21.40;91.40
4677;DHT22;2352;48.180;11.478;2022-08-07T00:24:29;21.30;91.60
4677;DHT22;2352;48.180;11.478;2022-08-07T00:27:32;21.30;91.50
4677;DHT22;2352;48.180;11.478;2022-08-07T00:30:55;21.30;91.50
4677;DHT22;2352;48.180;11.478;2022-08-07T00:34:00;21.30;91.60
4677;DHT22;2352;48.180;11.478;2022-08-07T00:37:03;21.30;91.40
4677;DHT22;2352;48.180;11.478;2022-08-07T00:40:09;21.30;91.60
4677;DHT22;2352;48.180;11.478;2022-08-07T00:43:14;21.30;91.80
4677;DHT22;2352;48.180;11.478;2022-08-07T00:46:37;21.20;91.50
4677;DHT22;2352;48.180;11.478;2022-08-07T00:49:42;21.20;91.00
4677;DHT22;2352;48.180;11.478;2022-08-07T00:53:06;21.20;90.80
4677;DHT22;2352;48.180;11.478;2022-08-07T00:56:10;21.20;90.80
4677;DHT22;2352;48.180;11.478;2022-08-07T00:59:16;21.20;90.70
4677;DHT22;2352;48.180;11.478;2022-08-07T01:02:33;21.20;90.50
4677;DHT22;2352;48.180;11.478;2022-08-07T01:05:42;21.10;90.80
4677;DHT22;2352;48.180;11.478;2022-08-07T01:08:54;21.10;90.40
4677;DHT22;2352;48.180;11.478;2022-08-07T01:12:02;21.10;91.00
4677;DHT22;2352;48.180;11.478;2022-08-07T01:15:25;21.00;90.50
4677;DHT22;2352;48.180;11.478;2022-08-07T01:18:48;21.00;90.30
4677;DHT22;2352;48.180;11.478;2022-08-07T01:21:53;21.00;90.40
4677;DHT22;2352;48.180;11.478;2022-08-07T01:24:57;21.10;90.60
4677;DHT22;2352;48.180;11.478;2022-08-07T01:28:03;21.00;90.60
4677;DHT22;2352;48.180;11.478;2022-08-07T01:31:12;21.00;90.70
4677;DHT22;2352;48.180;11.478;2022-08-07T01:34:18;21.00;90.40
4677;DHT22;2352;48.180;11.478;2022-08-07T01:37:32;21.00;90.50
4677;DHT22;2352;48.180;11.478;2022-08-07T01:40:37;21.00;90.50
4677;DHT22;2352;48.180;11.478;2022-08-07T01:43:41;21.00;90.50
4677;DHT22;2352;48.180;11.478;2022-08-07T01:46:46;20.90;90.40
4677;DHT22;2352;48.180;11.478;2022-08-07T01:49:49;20.80;90.80
4677;DHT22;2352;48.180;11.478;2022-08-07T01:52:59;20.80;91.10
4677;DHT22;2352;48.180;11.478;2022-08-07T01:56:13;20.80;90.60
4677;DHT22;2352;48.180;11.478;2022-08-07T01:59:22;20.90;90.70
4677;DHT22;2352;48.180;11.478;2022-08-07T02:02:37;20.70;90.90
4677;DHT22;2352;48.180;11.478;2022-08-07T02:06:04;20.60;91.20
4677;DHT22;2352;48.180;11.478;2022-08-07T02:09:30;20.60;91.30
4677;DHT22;2352;48.180;11.478;2022-08-07T02:12:56;20.60;91.10
4677;DHT22;2352;48.180;11.478;2022-08-07T02:16:02;20.60;91.40
4677;DHT22;2352;48.180;11.478;2022-08-07T02:19:10;20.70;91.60
4677;DHT22;2352;48.180;11.478;2022-08-07T02:22:36;20.70;91.50
4677;DHT22;2352;48.180;11.478;2022-08-07T02:25:46;20.80;91.80
4677;DHT22;2352;48.180;11.478;2022-08-07T02:29:10;20.70;91.60
4677;DHT22;2352;48.180;11.478;2022-08-07T02:32:15;20.70;91.80
4677;DHT22;2352;48.180;11.478;2022-08-07T02:35:24;20.60;92.00
4677;DHT22;2352;48.180;11.478;2022-08-07T02:38:48;20.50;92.30
4677;DHT22;2352;48.180;11.478;2022-08-07T02:42:01;20.40;92.40
4677;DHT22;2352;48.180;11.478;2022-08-07T02:45:16;20.30;92.60
4677;DHT22;2352;48.180;11.478;2022-08-07T02:48:40;20.40;92.50
4677;DHT22;2352;48.180;11.478;2022-08-07T02:51:57;20.30;92.70
4677;DHT22;2352;48.180;11.478;2022-08-07T02:55:05;20.30;92.70
4677;DHT22;2352;48.180;11.478;2022-08-07T02:58:31;20.30;92.70
4677;DHT22;2352;48.180;11.478;2022-08-07T03:01:36;20.40;92.60
4677;DHT22;2352;48.180;11.478;2022-08-07T03:04:42;20.40;92.50
4677;DHT22;2352;48.180;11.478;2022-08-07T03:07:47;20.30;92.70
4677;DHT22;2352;48.180;11.478;2022-08-07T03:11:09;20.30;92.60
4677;DHT22;2352;48.180;11.478;2022-08-07T03:14:14;20.20;92.30
4677;DHT22;2352;48.180;11.478;2022-08-07T03:17:19;20.20;92.40
4677;DHT22;2352;48.180;11.478;2022-08-07T03:20:23;20.30;92.50
4677;DHT22;2352;48.180;11.478;2022-08-07T03:23:27;20.30;92.30
4677;DHT22;2352;48.180;11.478;2022-08-07T03:26:51;20.30;92.10
4677;DHT22;2352;48.180;11.478;2022-08-07T03:30:02;20.20;92.20
4677;DHT22;2352;48.180;11.478;2022-08-07T03:33:06;20.20;92.40
4677;DHT22;2352;48.180;11.478;2022-08-07T03:36:11;20.20;92.10
4677;DHT22;2352;48.180;11.478;2022-08-07T03:39:16;20.20;92.50
4677;DHT22;2352;48.180;11.478;2022-08-07T03:42:41;20.10;92.90
4677;DHT22;2352;48.180;11.478;2022-08-07T03:45:46;20.10;92.60
4677;DHT22;2352;48.180;11.478;2022-08-07T03:48:49;20.10;92.50
4677;DHT22;2352;48.180;11.478;2022-08-07T03:52:04;20.00;92.80
4677;DHT22;2352;48.180;11.478;2022-08-07T03:55:19;20.00;93.00
4677;DHT22;2352;48.180;11.478;2022-08-07T03:58:22;20.00;92.70
4677;DHT22;2352;48.180;11.478;2022-08-07T04:01:48;20.00;92.80
4677;DHT22;2352;48.180;11.478;2022-08-07T04:04:51;20.10;92.80
4677;DHT22;2352;48.180;11.478;2022-08-07T04:07:55;20.10;92.40
4677;DHT22;2352;48.180;11.478;2022-08-07T04:10:58;20.10;92.60
4677;DHT22;2352;48.180;11.478;2022-08-07T04:14:22;20.10;92.50
4677;DHT22;2352;48.180;11.478;2022-08-07T04:17:43;20.10;92.70
4677;DHT22;2352;48.180;11.478;2022-08-07T04:21:06;20.10;92.70
4677;DHT22;2352;48.180;11.478;2022-08-07T04:24:10;20.00;92.40
4677;DHT22;2352;48.180;11.478;2022-08-07T04:27:34;19.90;92.40
4677;DHT22;2352;48.180;11.478;2022-08-07T04:30:46;19.90;92.40
4677;DHT22;2352;48.180;11.478;2022-08-07T04:34:01;20.00;92.60
4677;DHT22;2352;48.180;11.478;2022-08-07T04:37:04;19.90;92.60
4677;DHT22;2352;48.180;11.478;2022-08-07T04:40:21;20.00;92.80
4677;DHT22;2352;48.180;11.478;2022-08-07T04:43:34;19.80;93.10
4677;DHT22;2352;48.180;11.478;2022-08-07T04:47:02;19.90;93.10
4677;DHT22;2352;48.180;11.478;2022-08-07T04:50:15;19.90;93.00
4677;DHT22;2352;48.180;11.478;2022-08-07T04:53:30;20.00;92.90
4677;DHT22;2352;48.180;11.478;2022-08-07T04:56:59;20.00;92.70
4677;DHT22;2352;48.180;11.478;2022-08-07T05:00:33;20.00;92.70
4677;DHT22;2352;48.180;11.478;2022-08-07T05:03:45;20.00;92.70
4677;DHT22;2352;48.180;11.478;2022-08-07T05:07:14;20.00;92.70
4677;DHT22;2352;48.180;11.478;2022-08-07T05:10:40;19.90;92.60
4677;DHT22;2352;48.180;11.478;2022-08-07T05:13:52;19.80;92.90
4677;DHT22;2352;48.180;11.478;2022-08-07T05:17:18;19.80;92.60
4677;DHT22;2352;48.180;11.478;2022-08-07T05:20:45;19.80;92.50
4677;DHT22;2352;48.180;11.478;2022-08-07T05:23:56;19.90;92.40
4677;DHT22;2352;48.180;11.478;2022-08-07T05:27:01;19.90;91.90
4677;DHT22;2352;48.180;11.478;2022-08-07T05:30:06;19.90;91.80
4677;DHT22;2352;48.180;11.478;2022-08-07T05:33:12;19.80;91.00
4677;DHT22;2352;48.180;11.478;2022-08-07T05:36:19;19.80;91.20
4677;DHT22;2352;48.180;11.478;2022-08-07T05:39:34;19.80;90.90
4677;DHT22;2352;48.180;11.478;2022-08-07T05:42:58;19.60;90.90
4677;DHT22;2352;48.180;11.478;2022-08-07T05:46:02;19.70;90.90
4677;DHT22;2352;48.180;11.478;2022-08-07T05:49:07;19.60;90.90
4677;DHT22;2352;48.180;11.478;2022-08-07T05:52:13;19.70;90.40
4677;DHT22;2352;48.180;11.478;2022-08-07T05:55:22;19.80;90.60
4677;DHT22;2352;48.180;11.478;2022-08-07T05:58:46;19.80;90.00
4677;DHT22;2352;48.180;11.478;2022-08-07T06:01:53;19.70;88.70
4677;DHT22;2352;48.180;11.478;2022-08-07T06:05:04;19.70;88.60
4677;DHT22;2352;48.180;11.478;2022-08-07T06:08:16;19.70;88.60
4677;DHT22;2352;48.180;11.478;2022-08-07T06:11:33;19.70;87.20
4677;DHT22;2352;48.180;11.478;2022-08-07T06:14:37;19.70;87.00
4677;DHT22;2352;48.180;11.478;2022-08-07T06:17:42;19.70;88.20
4677;DHT22;2352;48.180;11.478;2022-08-07T06:20:56;19.60;86.70
4677;DHT22;2352;48.180;11.478;2022-08-07T06:24:19;19.60;87.40
4677;DHT22;2352;48.180;11.478;2022-08-07T06:27:44;19.70;86.00
4677;DHT22;2352;48.180;11.478;2022-08-07T06:31:03;19.70;85.40
4677;DHT22;2352;48.180;11.478;2022-08-07T06:34:06;19.70;85.90
4677;DHT22;2352;48.180;11.478;2022-08-07T06:37:10;19.70;87.10
4677;DHT22;2352;48.180;11.478;2022-08-07T06:40:18;19.80;86.50
4677;DHT22;2352;48.180;11.478;2022-08-07T06:43:23;19.80;85.00
4677;DHT22;2352;48.180;11.478;2022-08-07T06:46:40;19.90;84.30
4677;DHT22;2352;48.180;11.478;2022-08-07T06:49:54;19.90;85.30
4677;DHT22;2352;48.180;11.478;2022-08-07T06:53:00;19.90;85.50
4677;DHT22;2352;48.180;11.478;2022-08-07T06:56:07;20.00;84.30
4677;DHT22;2352;48.180;11.478;2022-08-07T06:59:19;20.00;84.70
4677;DHT22;2352;48.180;11.478;2022-08-07T07:02:43;20.00;84.90
4677;DHT22;2352;48.180;11.478;2022-08-07T07:05:58;20.00;84.20
4677;DHT22;2352;48.180;11.478;2022-08-07T07:09:20;20.00;84.10
4677;DHT22;2352;48.180;11.478;2022-08-07T07:12:32;20.00;84.80
4677;DHT22;2352;48.180;11.478;2022-08-07T07:15:46;20.10;85.10
4677;DHT22;2352;48.180;11.478;2022-08-07T07:18:56;20.20;84.00
4677;DHT22;2352;48.180;11.478;2022-08-07T07:22:13;20.30;84.20
4677;DHT22;2352;48.180;11.478;2022-08-07T07:25:38;20.20;83.60
4677;DHT22;2352;48.180;11.478;2022-08-07T07:29:07;20.30;83.20
4677;DHT22;2352;48.180;11.478;2022-08-07T07:32:33;20.20;84.30
4677;DHT22;2352;48.180;11.478;2022-08-07T07:35:42;20.20;84.80
4677;DHT22;2352;48.180;11.478;2022-08-07T07:39:06;20.30;84.30
4677;DHT22;2352;48.180;11.478;2022-08-07T07:42:11;20.30;83.70
4677;DHT22;2352;48.180;11.478;2022-08-07T07:45:24;20.40;84.40
4677;DHT22;2352;48.180;11.478;2022-08-07T07:48:49;20.30;83.30
4677;DHT22;2352;48.180;11.478;2022-08-07T07:52:10;20.40;84.70
4677;DHT22;2352;48.180;11.478;2022-08-07T07:55:18;20.50;83.80
4677;DHT22;2352;48.180;11.478;2022-08-07T07:58:24;20.60;82.90
4677;DHT22;2352;48.180;11.478;2022-08-07T08:01:30;20.70;82.30
4677;DHT22;2352;48.180;11.478;2022-08-07T08:04:55;20.90;82.70
4677;DHT22;2352;48.180;11.478;2022-08-07T08:07:59;21.10;81.50
4677;DHT22;2352;48.180;11.478;2022-08-07T08:11:07;21.10;80.70
4677;DHT22;2352;48.180;11.478;2022-08-07T08:14:30;21.30;81.40
4677;DHT22;2352;48.180;11.478;2022-08-07T08:17:39;21.30;78.30
4677;DHT22;2352;48.180;11.478;2022-08-07T08:21:01;21.40;75.90
4677;DHT22;2352;48.180;11.478;2022-08-07T08:24:08;21.40;76.90
4677;DHT22;2352;48.180;11.478;2022-08-07T08:27:50;21.30;74.70
4677;DHT22;2352;48.180;11.478;2022-08-07T08:30:59;21.30;74.60
4677;DHT22;2352;48.180;11.478;2022-08-07T08:34:07;21.30;74.60
4677;DHT22;2352;48.180;11.478;2022-08-07T08:37:30;21.30;73.80
4677;DHT22;2352;48.180;11.478;2022-08-07T08:40:57;21.30;74.10
4677;DHT22;2352;48.180;11.478;2022-08-07T08:44:09;21.40;75.00
4677;DHT22;2352;48.180;11.478;2022-08-07T08:47:37;21.50;72.90
4677;DHT22;2352;48.180;11.478;2022-08-07T08:50:59;21.60;74.70
4677;DHT22;2352;48.180;11.478;2022-08-07T08:54:21;21.70;74.90
4677;DHT22;2352;48.180;11.478;2022-08-07T08:57:31;21.80;72.90
4677;DHT22;2352;48.180;11.478;2022-08-07T09:00:41;21.80;73.70
4677;DHT22;2352;48.180;11.478;2022-08-07T09:03:57;21.80;73.50
4677;DHT22;2352;48.180;11.478;2022-08-07T09:07:07;21.90;72.80
4677;DHT22;2352;48.180;11.478;2022-08-07T09:10:19;21.90;73.70
4677;DHT22;2352;48.180;11.478;2022-08-07T09:13:31;22.00;71.60
4677;DHT22;2352;48.180;11.478;2022-08-07T09:16:47;22.00;72.10
4677;DHT22;2352;48.180;11.478;2022-08-07T09:19:58;22.10;73.00
4677;DHT22;2352;48.180;11.478;2022-08-07T09:23:33;22.20;73.20
4677;DHT22;2352;48.180;11.478;2022-08-07T09:27:07;22.20;73.20
4677;DHT22;2352;48.180;11.478;2022-08-07T09:30:21;22.30;73.60
4677;DHT22;2352;48.180;11.478;2022-08-07T09:33:43;22.40;73.40
4677;DHT22;2352;48.180;11.478;2022-08-07T09:37:02;22.40;72.20
4677;DHT22;2352;48.180;11.478;2022-08-07T09:40:15;22.50;72.50
4677;DHT22;2352;48.180;11.478;2022-08-07T09:43:32;22.50;71.00
4677;DHT22;2352;48.180;11.478;2022-08-07T09:46:50;22.60;70.80
4677;DHT22;2352;48.180;11.478;2022-08-07T09:50:23;22.60;71.50
4677;DHT22;2352;48.180;11.478;2022-08-07T09:53:33;22.70;70.70
4677;DHT22;2352;48.180;11.478;2022-08-07T09:57:15;22.70;72.00
4677;DHT22;2352;48.180;11.478;2022-08-07T10:00:25;22.70;70.40
4677;DHT22;2352;48.180;11.478;2022-08-07T10:03:47;22.70;69.80
4677;DHT22;2352;48.180;11.478;2022-08-07T10:07:26;22.80;69.50
4677;DHT22;2352;48.180;11.478;2022-08-07T10:11:01;23.00;71.30
4677;DHT22;2352;48.180;11.478;2022-08-07T10:14:56;23.20;70.20
4677;DHT22;2352;48.180;11.478;2022-08-07T10:18:19;23.30;68.30
4677;DHT22;2352;48.180;11.478;2022-08-07T10:21:36;23.40;67.90
4677;DHT22;2352;48.180;11.478;2022-08-07T10:25:09;23.40;67.00
4677;DHT22;2352;48.180;11.478;2022-08-07T10:28:36;23.60;66.40
4677;DHT22;2352;48.180;11.478;2022-08-07T10:32:01;23.80;62.10
4677;DHT22;2352;48.180;11.478;2022-08-07T10:35:38;23.90;66.20
4677;DHT22;2352;48.180;11.478;2022-08-07T10:39:04;24.20;64.20
4677;DHT22;2352;48.180;11.478;2022-08-07T10:42:21;24.20;64.70
4677;DHT22;2352;48.180;11.478;2022-08-07T10:45:36;24.30;63.50
4677;DHT22;2352;48.180;11.478;2022-08-07T10:49:05;24.50;65.80
4677;DHT22;2352;48.180;11.478;2022-08-07T10:52:19;24.70;62.60
4677;DHT22;2352;48.180;11.478;2022-08-07T10:55:41;24.60;63.00
4677;DHT22;2352;48.180;11.478;2022-08-07T10:58:55;24.70;61.90
4677;DHT22;2352;48.180;11.478;2022-08-07T11:02:10;24.70;62.50
4677;DHT22;2352;48.180;11.478;2022-08-07T11:05:41;24.80;61.50
4677;DHT22;2352;48.180;11.478;2022-08-07T11:08:59;25.00;64.20
4677;DHT22;2352;48.180;11.478;2022-08-07T11:12:05;25.20;62.90
4677;DHT22;2352;48.180;11.478;2022-08-07T11:15:16;25.40;62.30
4677;DHT22;2352;48.180;11.478;2022-08-07T11:18:36;25.50;62.10
4677;DHT22;2352;48.180;11.478;2022-08-07T11:21:45;25.60;61.50
4677;DHT22;2352;48.180;11.478;2022-08-07T11:24:58;25.80;60.00
4677;DHT22;2352;48.180;11.478;2022-08-07T11:28:11;26.00;60.70
4677;DHT22;2352;48.180;11.478;2022-08-07T11:31:23;26.10;59.60
4677;DHT22;2352;48.180;11.478;2022-08-07T11:34:35;26.30;59.50
4677;DHT22;2352;48.180;11.478;2022-08-07T11:37:55;26.40;59.60
4677;DHT22;2352;48.180;11.478;2022-08-07T11:41:18;26.40;59.00
4677;DHT22;2352;48.180;11.478;2022-08-07T11:44:50;26.40;58.50
4677;DHT22;2352;48.180;11.478;2022-08-07T11:48:20;26.50;57.80
4677;DHT22;2352;48.180;11.478;2022-08-07T11:51:40;26.50;58.40
4677;DHT22;2352;48.180;11.478;2022-08-07T11:54:59;26.70;56.70
4677;DHT22;2352;48.180;11.478;2022-08-07T11:58:20;26.80;57.80
4677;DHT22;2352;48.180;11.478;2022-08-07T12:01:44;27.00;57.70
4677;DHT22;2352;48.180;11.478;2022-08-07T12:05:07;27.20;57.20
4677;DHT22;2352;48.180;11.478;2022-08-07T12:08:32;27.30;55.70
4677;DHT22;2352;48.180;11.478;2022-08-07T12:11:44;27.40;56.10
4677;DHT22;2352;48.180;11.478;2022-08-07T12:15:13;27.50;56.40
4677;DHT22;2352;48.180;11.478;2022-08-07T12:18:43;27.60;55.50
4677;DHT22;2352;48.180;11.478;2022-08-07T12:21:56;27.70;54.60
4677;DHT22;2352;48.180;11.478;2022-08-07T12:25:26;27.80;54.00
4677;DHT22;2352;48.180;11.478;2022-08-07T12:29:14;27.70;54.40
4677;DHT22;2352;48.180;11.478;2022-08-07T12:32:41;27.90;54.50
4677;DHT22;2352;48.180;11.478;2022-08-07T12:35:50;28.10;54.80
4677;DHT22;2352;48.180;11.478;2022-08-07T12:39:01;28.10;53.00
4677;DHT22;2352;48.180;11.478;2022-08-07T12:42:26;28.20;53.50
4677;DHT22;2352;48.180;11.478;2022-08-07T12:45:38;28.30;53.90
4677;DHT22;2352;48.180;11.478;2022-08-07T12:48:59;28.40;51.70
4677;DHT22;2352;48.180;11.478;2022-08-07T12:52:33;28.60;52.00
4677;DHT22;2352;48.180;11.478;2022-08-07T12:55:45;28.60;53.10
4677;DHT22;2352;48.180;11.478;2022-08-07T12:59:05;28.60;52.80
4677;DHT22;2352;48.180;11.478;2022-08-07T13:02:39;28.60;51.40
4677;DHT22;2352;48.180;11.478;2022-08-07T13:06:00;28.70;51.20
4677;DHT22;2352;48.180;11.478;2022-08-07T13:09:26;28.70;51.70
4677;DHT22;2352;48.180;11.478;2022-08-07T13:13:00;28.70;52.70
4677;DHT22;2352;48.180;11.478;2022-08-07T13:16:13;28.70;52.50
4677;DHT22;2352;48.180;11.478;2022-08-07T13:19:25;28.80;52.30
4677;DHT22;2352;48.180;11.478;2022-08-07T13:22:55;28.90;51.30
4677;DHT22;2352;48.180;11.478;2022-08-07T13:26:25;29.00;50.80
4677;DHT22;2352;48.180;11.478;2022-08-07T13:29:35;28.90;50.00
4677;DHT22;2352;48.180;11.478;2022-08-07T13:32:52;28.80;49.00
4677;DHT22;2352;48.180;11.478;2022-08-07T13:36:02;28.80;50.30
4677;DHT22;2352;48.180;11.478;2022-08-07T13:39:14;28.80;50.90
4677;DHT22;2352;48.180;11.478;2022-08-07T13:42:39;28.90;50.60
4677;DHT22;2352;48.180;11.478;2022-08-07T13:45:52;28.90;50.20
4677;DHT22;2352;48.180;11.478;2022-08-07T13:49:17;29.00;49.90
4677;DHT22;2352;48.180;11.478;2022-08-07T13:52:42;28.90;50.80
4677;DHT22;2352;48.180;11.478;2022-08-07T13:55:50;29.00;49.10
4677;DHT22;2352;48.180;11.478;2022-08-07T13:58:57;29.00;48.60
4677;DHT22;2352;48.180;11.478;2022-08-07T14:02:08;29.00;48.30
4677;DHT22;2352;48.180;11.478;2022-08-07T14:05:19;28.90;50.00
4677;DHT22;2352;48.180;11.478;2022-08-07T14:08:24;28.90;49.50
4677;DHT22;2352;48.180;11.478;2022-08-07T14:11:30;28.90;49.20
4677;DHT22;2352;48.180;11.478;2022-08-07T14:15:02;28.90;48.80
4677;DHT22;2352;48.180;11.478;2022-08-07T14:18:10;29.00;49.70
4677;DHT22;2352;48.180;11.478;2022-08-07T14:21:32;29.00;48.90
4677;DHT22;2352;48.180;11.478;2022-08-07T14:24:59;28.90;48.90
4677;DHT22;2352;48.180;11.478;2022-08-07T14:28:08;28.80;48.10
4677;DHT22;2352;48.180;11.478;2022-08-07T14:31:15;28.80;47.60
4677;DHT22;2352;48.180;11.478;2022-08-07T14:34:20;28.70;48.20
4677;DHT22;2352;48.180;11.478;2022-08-07T14:37:31;28.70;50.00
4677;DHT22;2352;48.180;11.478;2022-08-07T14:40:40;28.70;49.50
4677;DHT22;2352;48.180;11.478;2022-08-07T14:43:53;28.70;47.70
4677;DHT22;2352;48.180;11.478;2022-08-07T14:47:11;28.70;48.10
4677;DHT22;2352;48.180;11.478;2022-08-07T14:50:42;28.60;49.50
4677;DHT22;2352;48.180;11.478;2022-08-07T14:53:49;28.50;48.60
4677;DHT22;2352;48.180;11.478;2022-08-07T14:57:14;28.50;48.50
4677;DHT22;2352;48.180;11.478;2022-08-07T15:00:28;28.40;49.10
4677;DHT22;2352;48.180;11.478;2022-08-07T15:03:33;28.40;49.30
4677;DHT22;2352;48.180;11.478;2022-08-07T15:06:53;28.30;48.90
4677;DHT22;2352;48.180;11.478;2022-08-07T15:09:58;28.40;49.40
4677;DHT22;2352;48.180;11.478;2022-08-07T15:13:15;28.30;49.90
4677;DHT22;2352;48.180;11.478;2022-08-07T15:16:24;28.20;50.20
4677;DHT22;2352;48.180;11.478;2022-08-07T15:19:50;28.20;48.70
4677;DHT22;2352;48.180;11.478;2022-08-07T15:23:19;28.00;49.60
4677;DHT22;2352;48.180;11.478;2022-08-07T15:26:46;27.90;50.70
4677;DHT22;2352;48.180;11.478;2022-08-07T15:29:51;27.90;50.50
4677;DHT22;2352;48.180;11.478;2022-08-07T15:33:16;27.90;51.90
4677;DHT22;2352;48.180;11.478;2022-08-07T15:36:22;27.90;51.00
4677;DHT22;2352;48.180;11.478;2022-08-07T15:39:48;27.80;51.60
4677;DHT22;2352;48.180;11.478;2022-08-07T15:43:17;27.80;52.60
4677;DHT22;2352;48.180;11.478;2022-08-07T15:46:41;27.70;50.70
4677;DHT22;2352;48.180;11.478;2022-08-07T15:49:54;27.70;52.20
4677;DHT22;2352;48.180;11.478;2022-08-07T15:53:08;27.60;51.10
4677;DHT22;2352;48.180;11.478;2022-08-07T15:56:15;27.60;51.50
4677;DHT22;2352;48.180;11.478;2022-08-07T15:59:24;27.60;51.80
4677;DHT22;2352;48.180;11.478;2022-08-07T16:02:46;27.60;52.10
4677;DHT22;2352;48.180;11.478;2022-08-07T16:05:51;27.50;51.40
4677;DHT22;2352;48.180;11.478;2022-08-07T16:09:00;27.40;51.20
4677;DHT22;2352;48.180;11.478;2022-08-07T16:12:16;27.40;52.30
4677;DHT22;2352;48.180;11.478;2022-08-07T16:15:38;27.40;51.80
4677;DHT22;2352;48.180;11.478;2022-08-07T16:19:14;27.40;52.70
4677;DHT22;2352;48.180;11.478;2022-08-07T16:23:04;27.20;51.10
4677;DHT22;2352;48.180;11.478;2022-08-07T16:26:37;27.20;51.60
4677;DHT22;2352;48.180;11.478;2022-08-07T16:30:05;27.10;51.50
4677;DHT22;2352;48.180;11.478;2022-08-07T16:33:29;27.10;51.30
4677;DHT22;2352;48.180;11.478;2022-08-07T16:37:17;27.10;51.30
4677;DHT22;2352;48.180;11.478;2022-08-07T16:41:08;27.00;52.40
4677;DHT22;2352;48.180;11.478;2022-08-07T16:44:25;27.00;52.30
4677;DHT22;2352;48.180;11.478;2022-08-07T16:51:43;26.80;52.30
4677;DHT22;2352;48.180;11.478;2022-08-07T16:55:14;26.80;52.90
4677;DHT22;2352;48.180;11.478;2022-08-07T16:58:28;26.70;52.20
4677;DHT22;2352;48.180;11.478;2022-08-07T17:01:58;26.70;52.50
4677;DHT22;2352;48.180;11.478;2022-08-07T17:05:10;26.70;52.60
4677;DHT22;2352;48.180;11.478;2022-08-07T17:08:36;26.60;52.70
4677;DHT22;2352;48.180;11.478;2022-08-07T17:12:07;26.60;52.70
4677;DHT22;2352;48.180;11.478;2022-08-07T17:15:38;26.50;52.80
4677;DHT22;2352;48.180;11.478;2022-08-07T17:19:02;26.40;53.50
4677;DHT22;2352;48.180;11.478;2022-08-07T17:22:24;26.40;54.50
4677;DHT22;2352;48.180;11.478;2022-08-07T17:25:49;26.40;54.40
4677;DHT22;2352;48.180;11.478;2022-08-07T17:29:07;26.30;54.70
4677;DHT22;2352;48.180;11.478;2022-08-07T17:32:42;26.30;53.90
4677;DHT22;2352;48.180;11.478;2022-08-07T17:35:59;26.30;54.80
4677;DHT22;2352;48.180;11.478;2022-08-07T17:39:07;26.20;54.70
4677;DHT22;2352;48.180;11.478;2022-08-07T17:42:25;26.20;55.40
4677;DHT22;2352;48.180;11.478;2022-08-07T17:45:33;26.10;54.10
4677;DHT22;2352;48.180;11.478;2022-08-07T17:48:48;26.00;54.50
4677;DHT22;2352;48.180;11.478;2022-08-07T17:51:56;26.00;54.90
4677;DHT22;2352;48.180;11.478;2022-08-07T17:55:04;26.00;56.00
4677;DHT22;2352;48.180;11.478;2022-08-07T17:58:16;25.90;55.40
4677;DHT22;2352;48.180;11.478;2022-08-07T18:01:41;25.80;55.80
4677;DHT22;2352;48.180;11.478;2022-08-07T18:04:56;25.80;55.50
4677;DHT22;2352;48.180;11.478;2022-08-07T18:08:25;25.80;55.80
4677;DHT22;2352;48.180;11.478;2022-08-07T18:11:36;25.70;56.60
4677;DHT22;2352;48.180;11.478;2022-08-07T18:15:07;25.70;55.90
4677;DHT22;2352;48.180;11.478;2022-08-07T18:18:13;25.60;56.30
4677;DHT22;2352;48.180;11.478;2022-08-07T18:21:43;25.60;55.30
4677;DHT22;2352;48.180;11.478;2022-08-07T18:25:05;25.50;56.20
4677;DHT22;2352;48.180;11.478;2022-08-07T18:28:31;25.40;55.80
4677;DHT22;2352;48.180;11.478;2022-08-07T18:32:07;25.40;57.20
4677;DHT22;2352;48.180;11.478;2022-08-07T18:35:24;25.40;56.20
4677;DHT22;2352;48.180;11.478;2022-08-07T18:38:42;25.30;56.70
4677;DHT22;2352;48.180;11.478;2022-08-07T18:42:10;25.20;56.20
4677;DHT22;2352;48.180;11.478;2022-08-07T18:45:20;25.20;57.10
4677;DHT22;2352;48.180;11.478;2022-08-07T18:48:51;25.20;57.70
4677;DHT22;2352;48.180;11.478;2022-08-07T18:52:32;25.20;57.50
4677;DHT22;2352;48.180;11.478;2022-08-07T18:56:06;25.10;58.30
4677;DHT22;2352;48.180;11.478;2022-08-07T18:59:38;25.00;58.40
4677;DHT22;2352;48.180;11.478;2022-08-07T19:03:06;25.00;58.80
4677;DHT22;2352;48.180;11.478;2022-08-07T19:06:25;25.00;59.10
4677;DHT22;2352;48.180;11.478;2022-08-07T19:09:41;24.90;58.90
4677;DHT22;2352;48.180;11.478;2022-08-07T19:13:05;24.90;59.30
4677;DHT22;2352;48.180;11.478;2022-08-07T19:16:17;24.90;60.00
4677;DHT22;2352;48.180;11.478;2022-08-07T19:19:49;24.90;60.10
4677;DHT22;2352;48.180;11.478;2022-08-07T19:23:02;24.80;60.40
4677;DHT22;2352;48.180;11.478;2022-08-07T19:26:24;24.80;60.00
4677;DHT22;2352;48.180;11.478;2022-08-07T19:29:36;24.70;61.30
4677;DHT22;2352;48.180;11.478;2022-08-07T19:33:03;24.60;61.90
4677;DHT22;2352;48.180;11.478;2022-08-07T19:36:15;24.60;61.70
4677;DHT22;2352;48.180;11.478;2022-08-07T19:39:30;24.60;62.90
4677;DHT22;2352;48.180;11.478;2022-08-07T19:42:55;24.60;62.70
4677;DHT22;2352;48.180;11.478;2022-08-07T19:46:07;24.50;62.40
4677;DHT22;2352;48.180;11.478;2022-08-07T19:49:15;24.50;63.50
4677;DHT22;2352;48.180;11.478;2022-08-07T19:52:38;24.50;62.90
4677;DHT22;2352;48.180;11.478;2022-08-07T19:55:43;24.40;63.90
4677;DHT22;2352;48.180;11.478;2022-08-07T19:59:00;24.40;63.80
4677;DHT22;2352;48.180;11.478;2022-08-07T20:02:11;24.30;64.50
4677;DHT22;2352;48.180;11.478;2022-08-07T20:05:30;24.30;64.80
4677;DHT22;2352;48.180;11.478;2022-08-07T20:08:54;24.20;64.80
4677;DHT22;2352;48.180;11.478;2022-08-07T20:12:04;24.20;65.80
4677;DHT22;2352;48.180;11.478;2022-08-07T20:15:31;24.10;65.40
4677;DHT22;2352;48.180;11.478;2022-08-07T20:18:42;24.10;65.60
4677;DHT22;2352;48.180;11.478;2022-08-07T20:21:46;24.00;66.60
4677;DHT22;2352;48.180;11.478;2022-08-07T20:24:58;24.00;66.50
4677;DHT22;2352;48.180;11.478;2022-08-07T20:28:09;23.90;66.50
4677;DHT22;2352;48.180;11.478;2022-08-07T20:31:17;23.90;67.60
4677;DHT22;2352;48.180;11.478;2022-08-07T20:34:27;23.80;67.90
4677;DHT22;2352;48.180;11.478;2022-08-07T20:37:51;23.80;68.40
4677;DHT22;2352;48.180;11.478;2022-08-07T20:41:02;23.70;68.50
4677;DHT22;2352;48.180;11.478;2022-08-07T20:44:07;23.70;68.50
4677;DHT22;2352;48.180;11.478;2022-08-07T20:47:17;23.60;68.80
4677;DHT22;2352;48.180;11.478;2022-08-07T20:50:28;23.60;69.30
4677;DHT22;2352;48.180;11.478;2022-08-07T20:53:33;23.60;70.00
4677;DHT22;2352;48.180;11.478;2022-08-07T20:56:58;23.50;70.90
4677;DHT22;2352;48.180;11.478;2022-08-07T21:00:04;23.50;70.40
4677;DHT22;2352;48.180;11.478;2022-08-07T21:03:14;23.40;70.90
4677;DHT22;2352;48.180;11.478;2022-08-07T21:06:22;23.40;71.30